createdAt,value
2018-06-29T00:00:17.395Z,18.8
2018-06-29T00:01:19.407Z,18.8
2018-06-29T00:02:24.491Z,18.8
2018-06-29T00:03:29.038Z,18.6
2018-06-29T00:04:33.875Z,18.6
2018-06-29T00:05:37.332Z,18.6
2018-06-29T00:06:41.058Z,18.5
2018-06-29T00:07:47.996Z,18.5
2018-06-29T00:08:49.856Z,18.5
2018-06-29T00:09:51.808Z,18.5
2018-06-29T00:10:54.200Z,18.3
2018-06-29T00:11:56.184Z,18.5
2018-06-29T00:12:59.312Z,18.2
2018-06-29T00:14:03.011Z,18.3
2018-06-29T00:15:09.219Z,18.1
2018-06-29T00:16:12.627Z,18.1
2018-06-29T00:17:19.224Z,18.1
2018-06-29T00:18:20.933Z,18.1
2018-06-29T00:19:27.985Z,18.1
2018-06-29T00:20:29.692Z,18.0
2018-06-29T00:21:31.629Z,18.0
2018-06-29T00:22:33.846Z,18.0
2018-06-29T00:23:39.329Z,17.9
2018-06-29T00:24:41.482Z,17.7
2018-06-29T00:25:43.729Z,17.8
2018-06-29T00:26:45.757Z,17.8
2018-06-29T00:27:50.417Z,17.8
2018-06-29T00:28:52.425Z,17.8
2018-06-29T00:29:55.366Z,17.9
2018-06-29T00:30:57.317Z,17.7
2018-06-29T00:32:05.158Z,17.8
2018-06-29T00:33:07.045Z,17.8
2018-06-29T00:34:09.504Z,17.7
2018-06-29T00:35:12.504Z,17.8
2018-06-29T00:36:15.445Z,17.8
2018-06-29T00:37:17.438Z,17.8
2018-06-29T00:38:20.005Z,17.7
2018-06-29T00:39:28.191Z,17.7
2018-06-29T00:40:30.717Z,17.7
2018-06-29T00:41:32.948Z,17.6
2018-06-29T00:42:38.009Z,17.6
2018-06-29T00:43:40.827Z,17.6
2018-06-29T00:44:44.111Z,17.6
2018-06-29T00:45:50.141Z,17.6
2018-06-29T00:46:51.813Z,17.6
2018-06-29T00:47:54.344Z,17.6
2018-06-29T00:48:56.401Z,17.5
2018-06-29T00:49:59.126Z,17.5
2018-06-29T00:51:01.314Z,17.5
2018-06-29T00:52:09.759Z,17.4
2018-06-29T00:53:11.498Z,17.4
2018-06-29T00:54:13.557Z,17.4
2018-06-29T00:55:15.626Z,17.4
2018-06-29T00:56:22.909Z,17.4
2018-06-29T00:57:25.907Z,17.4
2018-06-29T00:58:27.912Z,17.4
2018-06-29T00:59:30.987Z,17.4
2018-06-29T01:00:33.101Z,17.4
2018-06-29T01:01:35.321Z,17.4
2018-06-29T01:02:38.033Z,17.3
2018-06-29T01:03:46.333Z,17.3
2018-06-29T01:04:48.297Z,17.2
2018-06-29T01:05:50.441Z,17.3
2018-06-29T01:06:52.597Z,17.2
2018-06-29T01:08:01.193Z,17.3
2018-06-29T01:09:03.959Z,17.3
2018-06-29T01:10:09.316Z,17.3
2018-06-29T01:11:11.079Z,17.3
2018-06-29T01:12:13.098Z,17.3
2018-06-29T01:13:15.079Z,17.0
2018-06-29T01:14:20.690Z,17.1
2018-06-29T01:15:22.541Z,17.0
2018-06-29T01:16:24.640Z,16.9
2018-06-29T01:17:26.813Z,16.9
2018-06-29T01:18:29.080Z,16.9
2018-06-29T01:19:35.683Z,16.9
2018-06-29T01:20:40.034Z,16.8
2018-06-29T01:21:42.514Z,16.8
2018-06-29T01:22:45.400Z,16.9
2018-06-29T01:23:52.351Z,16.8
2018-06-29T01:24:54.392Z,16.8
2018-06-29T01:26:00.126Z,16.8
2018-06-29T01:27:02.120Z,16.8
2018-06-29T01:28:04.967Z,16.7
2018-06-29T01:29:09.112Z,16.7
2018-06-29T01:30:11.497Z,16.7
2018-06-29T01:31:13.563Z,16.7
2018-06-29T01:32:15.733Z,16.6
2018-06-29T01:33:18.268Z,16.7
2018-06-29T01:34:20.134Z,16.7
2018-06-29T01:35:22.758Z,16.7
2018-06-29T01:36:25.253Z,16.7
2018-06-29T01:37:27.306Z,16.7
2018-06-29T01:38:29.855Z,16.6
2018-06-29T01:39:36.586Z,16.6
2018-06-29T01:40:38.651Z,16.7
2018-06-29T01:41:40.810Z,16.7
2018-06-29T01:42:42.753Z,16.7
2018-06-29T01:43:45.046Z,16.7
2018-06-29T01:44:49.993Z,16.7
2018-06-29T01:45:51.813Z,16.7
2018-06-29T01:46:54.780Z,16.7
2018-06-29T01:47:56.839Z,16.7
2018-06-29T01:48:59.050Z,16.6
2018-06-29T01:50:01.931Z,16.7
2018-06-29T01:51:03.958Z,16.6
2018-06-29T01:52:05.920Z,16.6
2018-06-29T01:53:10.234Z,16.6
2018-06-29T01:54:12.325Z,16.5
2018-06-29T01:55:14.822Z,16.6
2018-06-29T01:56:16.752Z,16.5
2018-06-29T01:57:25.226Z,16.5
2018-06-29T01:58:26.804Z,16.6
2018-06-29T01:59:28.841Z,16.5
2018-06-29T02:00:30.784Z,16.4
2018-06-29T02:01:39.616Z,16.4
2018-06-29T02:02:41.545Z,16.3
2018-06-29T02:03:50.168Z,16.3
2018-06-29T02:04:52.137Z,16.3
2018-06-29T02:05:54.147Z,16.3
2018-06-29T02:07:00.422Z,16.3
2018-06-29T02:08:08.468Z,16.2
2018-06-29T02:09:12.293Z,16.2
2018-06-29T02:10:21.680Z,16.2
2018-06-29T02:11:23.444Z,16.2
2018-06-29T02:12:25.459Z,16.2
2018-06-29T02:13:27.610Z,16.1
2018-06-29T02:14:29.832Z,16.0
2018-06-29T02:15:38.684Z,16.0
2018-06-29T02:16:40.547Z,16.0
2018-06-29T02:17:42.524Z,16.1
2018-06-29T02:18:44.726Z,16.1
2018-06-29T02:19:46.866Z,16.1
2018-06-29T02:20:49.130Z,16.0
2018-06-29T02:21:52.120Z,16.0
2018-06-29T02:22:54.387Z,16.1
2018-06-29T02:23:57.579Z,16.0
2018-06-29T02:24:59.454Z,16.1
2018-06-29T02:26:02.707Z,16.1
2018-06-29T02:27:04.771Z,16.0
2018-06-29T02:28:06.919Z,16.0
2018-06-29T02:29:08.881Z,16.0
2018-06-29T02:30:12.247Z,16.0
2018-06-29T02:31:14.241Z,16.0
2018-06-29T02:32:19.684Z,15.9
2018-06-29T02:33:23.192Z,16.0
2018-06-29T02:34:32.137Z,15.9
2018-06-29T02:35:35.328Z,15.9
2018-06-29T02:36:42.505Z,15.9
2018-06-29T02:37:44.094Z,15.8
2018-06-29T02:38:49.769Z,15.8
2018-06-29T02:39:51.375Z,15.8
2018-06-29T02:40:58.606Z,15.7
2018-06-29T02:42:00.413Z,15.7
2018-06-29T02:43:02.429Z,15.7
2018-06-29T02:44:09.753Z,15.6
2018-06-29T02:45:14.452Z,15.6
2018-06-29T02:46:19.310Z,15.7
2018-06-29T02:47:23.421Z,15.5
2018-06-29T02:48:28.354Z,15.5
2018-06-29T02:49:31.387Z,15.5
2018-06-29T02:50:37.400Z,15.5
2018-06-29T02:51:40.873Z,15.5
2018-06-29T02:52:44.031Z,15.5
2018-06-29T02:53:46.009Z,15.6
2018-06-29T02:54:49.123Z,15.4
2018-06-29T02:55:53.076Z,15.5
2018-06-29T02:56:55.102Z,15.5
2018-06-29T02:57:59.657Z,15.5
2018-06-29T02:59:01.756Z,15.5
2018-06-29T03:00:05.331Z,15.6
2018-06-29T03:01:07.346Z,15.6
2018-06-29T03:02:10.044Z,15.7
2018-06-29T03:03:12.025Z,15.6
2018-06-29T03:04:17.042Z,15.6
2018-06-29T03:05:19.047Z,15.6
2018-06-29T03:06:21.124Z,15.6
2018-06-29T03:07:24.211Z,15.5
2018-06-29T03:08:26.221Z,15.4
2018-06-29T03:09:28.425Z,15.5
2018-06-29T03:10:30.344Z,15.5
2018-06-29T03:11:34.338Z,15.5
2018-06-29T03:12:37.155Z,15.5
2018-06-29T03:13:39.061Z,15.6
2018-06-29T03:14:41.288Z,15.6
2018-06-29T03:15:43.328Z,15.7
2018-06-29T03:16:46.036Z,15.6
2018-06-29T03:17:50.862Z,15.6
2018-06-29T03:20:03.163Z,15.6
2018-06-29T03:21:06.107Z,15.6
2018-06-29T03:22:09.003Z,15.6
2018-06-29T03:23:11.690Z,15.6
2018-06-29T03:24:13.681Z,15.6
2018-06-29T03:25:15.728Z,15.6
2018-06-29T03:26:24.677Z,15.7
2018-06-29T03:27:27.378Z,15.6
2018-06-29T03:28:34.999Z,15.6
2018-06-29T03:29:37.579Z,15.6
2018-06-29T03:30:44.516Z,15.6
2018-06-29T03:31:46.552Z,15.6
2018-06-29T03:32:48.805Z,15.6
2018-06-29T03:33:50.927Z,15.5
2018-06-29T03:34:52.886Z,15.7
2018-06-29T03:35:57.691Z,15.6
2018-06-29T03:36:59.664Z,15.7
2018-06-29T03:38:01.718Z,15.6
2018-06-29T03:39:03.779Z,15.5
2018-06-29T03:40:06.286Z,15.5
2018-06-29T03:41:08.720Z,15.6
2018-06-29T03:42:11.088Z,15.5
2018-06-29T03:43:13.743Z,15.5
2018-06-29T03:44:15.776Z,15.7
2018-06-29T03:45:18.740Z,15.7
2018-06-29T03:46:24.426Z,15.6
2018-06-29T03:47:27.189Z,15.7
2018-06-29T03:48:29.648Z,15.7
2018-06-29T03:49:32.144Z,15.7
2018-06-29T03:50:38.846Z,15.8
2018-06-29T03:51:47.508Z,15.7
2018-06-29T03:52:49.219Z,15.8
2018-06-29T03:53:51.301Z,15.8
2018-06-29T03:54:53.678Z,15.9
2018-06-29T03:55:55.959Z,16.0
2018-06-29T03:57:01.188Z,16.0
2018-06-29T03:58:09.142Z,16.0
2018-06-29T03:59:19.765Z,16.0
2018-06-29T04:00:22.151Z,16.0
2018-06-29T04:01:33.132Z,16.0
2018-06-29T04:02:34.945Z,16.0
2018-06-29T04:03:41.492Z,16.0
2018-06-29T04:04:43.577Z,16.1
2018-06-29T04:05:45.723Z,16.0
2018-06-29T04:06:59.108Z,16.0
2018-06-29T04:08:00.669Z,16.0
2018-06-29T04:09:09.388Z,16.0
2018-06-29T04:10:10.982Z,16.0
2018-06-29T04:11:13.036Z,16.1
2018-06-29T04:12:15.164Z,16.1
2018-06-29T04:13:17.271Z,16.2
2018-06-29T04:14:18.996Z,16.2
2018-06-29T04:15:21.012Z,16.3
2018-06-29T04:16:22.961Z,16.3
2018-06-29T04:17:25.043Z,16.3
2018-06-29T04:18:27.199Z,16.4
2018-06-29T04:19:29.231Z,16.4
2018-06-29T04:20:31.311Z,16.5
2018-06-29T04:21:33.569Z,16.5
2018-06-29T04:22:35.948Z,16.6
2018-06-29T04:23:37.990Z,16.5
2018-06-29T04:24:40.149Z,16.6
2018-06-29T04:25:42.132Z,16.6
2018-06-29T04:26:43.909Z,16.7
2018-06-29T04:27:45.945Z,16.7
2018-06-29T04:28:48.036Z,16.7
2018-06-29T04:29:50.148Z,16.7
2018-06-29T04:30:52.261Z,16.7
2018-06-29T04:31:55.229Z,16.9
2018-06-29T04:32:57.204Z,16.8
2018-06-29T04:33:59.243Z,16.9
2018-06-29T04:35:01.306Z,17.0
2018-06-29T04:36:03.434Z,17.1
2018-06-29T04:37:05.629Z,17.2
2018-06-29T04:38:07.408Z,17.3
2018-06-29T04:39:09.449Z,17.3
2018-06-29T04:40:11.222Z,17.3
2018-06-29T04:41:13.264Z,17.4
2018-06-29T04:42:15.057Z,17.5
2018-06-29T04:43:17.250Z,17.6
2018-06-29T04:44:19.322Z,17.7
2018-06-29T04:45:21.580Z,17.9
2018-06-29T04:46:23.686Z,18.0
2018-06-29T04:47:25.530Z,17.9
2018-06-29T04:48:27.668Z,18.0
2018-06-29T04:49:29.733Z,18.0
2018-06-29T04:50:31.919Z,18.1
2018-06-29T04:51:33.951Z,18.1
2018-06-29T04:52:35.837Z,18.2
2018-06-29T04:53:37.966Z,18.2
2018-06-29T04:54:40.118Z,18.3
2018-06-29T04:55:41.997Z,18.5
2018-06-29T04:56:44.229Z,18.5
2018-06-29T04:57:46.241Z,18.8
2018-06-29T04:58:48.294Z,18.9
2018-06-29T04:59:50.167Z,19.1
2018-06-29T05:00:52.049Z,19.3
2018-06-29T05:01:54.218Z,19.5
2018-06-29T05:02:56.280Z,19.7
2018-06-29T05:03:58.122Z,19.9
2018-06-29T05:04:59.897Z,20.0
2018-06-29T05:06:02.060Z,20.2
2018-06-29T05:07:03.766Z,20.3
2018-06-29T05:08:05.794Z,20.5
2018-06-29T05:09:07.673Z,20.8
2018-06-29T05:10:10.307Z,20.9
2018-06-29T05:11:12.416Z,21.0
2018-06-29T05:12:14.700Z,21.2
2018-06-29T05:13:16.900Z,21.2
2018-06-29T05:14:18.682Z,21.3
2018-06-29T05:15:20.869Z,21.5
2018-06-29T05:16:23.148Z,21.5
2018-06-29T05:17:25.352Z,21.8
2018-06-29T05:18:27.687Z,21.8
2018-06-29T05:19:29.936Z,22.0
2018-06-29T05:20:32.012Z,22.2
2018-06-29T05:21:34.232Z,22.1
2018-06-29T05:22:36.442Z,22.2
2018-06-29T05:23:38.671Z,22.3
2018-06-29T05:24:40.847Z,22.3
2018-06-29T05:25:43.104Z,22.4
2018-06-29T05:26:46.569Z,22.4
2018-06-29T05:27:48.386Z,22.6
2018-06-29T05:28:50.641Z,22.7
2018-06-29T05:29:52.941Z,22.8
2018-06-29T05:30:54.794Z,22.7
2018-06-29T05:31:56.875Z,22.9
2018-06-29T05:32:59.053Z,23.0
2018-06-29T05:34:01.211Z,23.1
2018-06-29T05:35:03.154Z,23.2
2018-06-29T05:36:05.053Z,23.3
2018-06-29T05:37:07.390Z,23.4
2018-06-29T05:38:09.414Z,23.5
2018-06-29T05:39:11.561Z,23.5
2018-06-29T05:40:13.368Z,23.5
2018-06-29T05:41:15.222Z,23.6
2018-06-29T05:42:17.380Z,23.9
2018-06-29T05:43:19.640Z,23.7
2018-06-29T05:44:21.889Z,23.4
2018-06-29T05:45:24.085Z,23.3
2018-06-29T05:46:26.405Z,23.3
2018-06-29T05:47:28.514Z,23.4
2018-06-29T05:48:30.461Z,23.5
2018-06-29T05:49:32.411Z,23.6
2018-06-29T05:50:34.714Z,23.8
2018-06-29T05:51:36.665Z,23.9
2018-06-29T05:52:38.967Z,24.1
2018-06-29T05:53:41.359Z,24.1
2018-06-29T05:54:43.489Z,24.1
2018-06-29T05:55:45.717Z,24.2
2018-06-29T05:56:47.590Z,24.2
2018-06-29T05:57:49.881Z,24.4
2018-06-29T05:58:52.931Z,24.5
2018-06-29T05:59:54.820Z,24.6
2018-06-29T06:00:57.072Z,24.7
2018-06-29T06:01:59.337Z,24.8
2018-06-29T06:03:01.449Z,25.0
2018-06-29T06:04:03.675Z,25.1
2018-06-29T06:05:06.060Z,25.1
2018-06-29T06:06:07.877Z,25.0
2018-06-29T06:07:10.091Z,25.0
2018-06-29T06:08:12.013Z,25.2
2018-06-29T06:09:13.916Z,25.3
2018-06-29T06:10:16.188Z,25.5
2018-06-29T06:11:17.969Z,25.3
2018-06-29T06:12:20.161Z,25.4
2018-06-29T06:13:23.450Z,25.5
2018-06-29T06:14:25.318Z,25.6
2018-06-29T06:15:27.172Z,25.6
2018-06-29T06:16:29.457Z,25.5
2018-06-29T06:17:32.352Z,25.7
2018-06-29T06:18:34.401Z,25.4
2018-06-29T06:19:36.564Z,25.8
2018-06-29T06:20:38.895Z,25.6
2018-06-29T06:21:40.739Z,25.6
2018-06-29T06:22:42.583Z,25.4
2018-06-29T06:23:44.443Z,25.6
2018-06-29T06:24:47.444Z,25.7
2018-06-29T06:25:49.716Z,25.6
2018-06-29T06:26:51.788Z,25.5
2018-06-29T06:27:54.097Z,25.6
2018-06-29T06:28:56.317Z,25.7
2018-06-29T06:29:58.268Z,25.9
2018-06-29T06:31:00.521Z,26.0
2018-06-29T06:32:02.886Z,26.1
2018-06-29T06:33:05.251Z,26.1
2018-06-29T06:34:07.547Z,26.2
2018-06-29T06:35:09.551Z,26.2
2018-06-29T06:36:11.766Z,26.3
2018-06-29T06:37:14.075Z,26.4
2018-06-29T06:38:15.986Z,26.5
2018-06-29T06:39:17.852Z,26.6
2018-06-29T06:40:19.975Z,26.8
2018-06-29T06:41:22.255Z,27.0
2018-06-29T06:42:24.164Z,26.8
2018-06-29T06:43:26.453Z,27.1
2018-06-29T06:44:28.288Z,27.2
2018-06-29T06:45:30.619Z,27.2
2018-06-29T06:46:32.331Z,27.2
2018-06-29T06:47:34.528Z,27.1
2018-06-29T06:48:36.267Z,27.2
2018-06-29T06:49:38.261Z,27.2
2018-06-29T06:50:40.499Z,27.4
2018-06-29T06:51:42.816Z,27.4
2018-06-29T06:52:44.688Z,27.6
2018-06-29T06:53:46.834Z,27.7
2018-06-29T06:54:49.196Z,27.8
2018-06-29T06:55:51.632Z,27.9
2018-06-29T06:56:53.750Z,28.2
2018-06-29T06:57:55.652Z,28.4
2018-06-29T06:58:57.804Z,28.5
2018-06-29T07:00:00.229Z,28.4
2018-06-29T07:01:02.130Z,28.3
2018-06-29T07:02:04.378Z,28.1
2018-06-29T07:03:06.249Z,28.2
2018-06-29T07:04:08.445Z,28.2
2018-06-29T07:05:10.771Z,28.5
2018-06-29T07:06:13.563Z,28.6
2018-06-29T07:07:15.608Z,28.4
2018-06-29T07:08:18.250Z,28.5
2018-06-29T07:09:22.023Z,28.6
2018-06-29T07:10:24.007Z,28.7
2018-06-29T07:11:26.364Z,28.7
2018-06-29T07:12:28.677Z,28.7
2018-06-29T07:13:31.112Z,28.5
2018-06-29T07:14:33.379Z,28.7
2018-06-29T07:15:36.019Z,29.0
2018-06-29T07:16:38.876Z,29.3
2018-06-29T07:17:41.141Z,29.2
2018-06-29T07:18:46.843Z,29.2
2018-06-29T07:19:48.756Z,29.1
2018-06-29T07:20:50.607Z,29.0
2018-06-29T07:21:52.854Z,28.7
2018-06-29T07:22:55.217Z,28.8
2018-06-29T07:23:57.629Z,29.0
2018-06-29T07:25:00.258Z,29.3
2018-06-29T07:26:02.741Z,29.6
2018-06-29T07:27:04.853Z,29.7
2018-06-29T07:28:07.043Z,29.8
2018-06-29T07:29:09.319Z,29.9
2018-06-29T07:30:11.750Z,29.8
2018-06-29T07:31:14.498Z,30.0
2018-06-29T07:32:16.325Z,30.1
2018-06-29T07:33:18.266Z,30.0
2018-06-29T07:34:20.559Z,30.2
2018-06-29T07:35:22.303Z,30.3
2018-06-29T07:36:24.966Z,30.3
2018-06-29T07:37:27.180Z,30.3
2018-06-29T07:38:29.262Z,30.2
2018-06-29T07:39:31.609Z,30.2
2018-06-29T07:40:33.476Z,30.2
2018-06-29T07:41:35.467Z,30.3
2018-06-29T07:42:37.751Z,30.5
2018-06-29T07:43:40.041Z,30.7
2018-06-29T07:44:44.160Z,30.5
2018-06-29T07:45:46.378Z,30.6
2018-06-29T07:46:48.435Z,31.0
2018-06-29T07:47:50.583Z,31.1
2018-06-29T07:48:53.257Z,31.1
2018-06-29T07:49:55.284Z,31.4
2018-06-29T07:50:57.612Z,31.2
2018-06-29T07:51:59.875Z,31.4
2018-06-29T07:53:02.091Z,31.4
2018-06-29T07:54:05.225Z,31.4
2018-06-29T07:55:07.560Z,31.3
2018-06-29T07:56:09.483Z,31.3
2018-06-29T07:57:11.869Z,31.4
2018-06-29T07:58:13.666Z,31.5
2018-06-29T07:59:16.147Z,31.2
2018-06-29T08:00:18.885Z,31.4
2018-06-29T08:01:21.344Z,31.6
2018-06-29T08:02:23.373Z,31.0
2018-06-29T08:03:25.516Z,31.3
2018-06-29T08:04:27.672Z,31.4
2018-06-29T08:05:30.387Z,31.4
2018-06-29T08:06:32.511Z,31.5
2018-06-29T08:07:34.765Z,31.5
2018-06-29T08:08:37.328Z,31.3
2018-06-29T08:09:39.976Z,31.5
2018-06-29T08:10:42.840Z,31.3
2018-06-29T08:11:44.724Z,31.5
2018-06-29T08:12:47.368Z,31.8
2018-06-29T08:13:49.470Z,32.2
2018-06-29T08:14:51.686Z,32.3
2018-06-29T08:15:53.728Z,32.3
2018-06-29T08:16:55.709Z,32.6
2018-06-29T08:17:57.880Z,32.4
2018-06-29T08:19:00.139Z,32.6
2018-06-29T08:20:02.204Z,32.6
2018-06-29T08:21:05.276Z,32.5
2018-06-29T08:22:07.917Z,32.8
2018-06-29T08:23:09.749Z,32.4
2018-06-29T08:24:12.227Z,32.4
2018-06-29T08:25:14.455Z,32.7
2018-06-29T08:26:16.471Z,32.5
2018-06-29T08:27:18.672Z,32.4
2018-06-29T08:28:20.763Z,32.4
2018-06-29T08:29:22.898Z,32.3
2018-06-29T08:30:25.300Z,32.6
2018-06-29T08:31:27.117Z,32.6
2018-06-29T08:32:29.080Z,32.4
2018-06-29T08:33:31.269Z,32.2
2018-06-29T08:34:34.010Z,32.4
2018-06-29T08:35:36.097Z,32.3
2018-06-29T08:36:38.023Z,32.2
2018-06-29T08:37:40.096Z,32.1
2018-06-29T08:38:42.184Z,32.2
2018-06-29T08:39:44.164Z,32.3
2018-06-29T08:40:46.653Z,32.3
2018-06-29T08:41:49.075Z,32.4
2018-06-29T08:42:51.365Z,32.7
2018-06-29T08:43:53.378Z,32.5
2018-06-29T08:44:55.508Z,32.7
2018-06-29T08:45:57.282Z,32.7
2018-06-29T08:46:59.520Z,32.7
2018-06-29T08:48:01.663Z,32.9
2018-06-29T08:49:04.181Z,32.9
2018-06-29T08:50:06.144Z,32.8
2018-06-29T08:51:08.620Z,32.8
2018-06-29T08:52:10.902Z,32.9
2018-06-29T08:53:13.172Z,32.9
2018-06-29T08:54:15.025Z,33.0
2018-06-29T08:55:16.999Z,33.2
2018-06-29T08:56:19.138Z,33.2
2018-06-29T08:57:21.280Z,33.6
2018-06-29T08:58:23.241Z,33.7
2018-06-29T08:59:25.496Z,33.8
2018-06-29T09:00:27.398Z,34.1
2018-06-29T09:01:29.722Z,34.3
2018-06-29T09:02:32.304Z,34.3
2018-06-29T09:03:34.459Z,34.3
2018-06-29T09:04:37.318Z,34.3
2018-06-29T09:05:39.490Z,34.4
2018-06-29T09:06:41.822Z,34.5
2018-06-29T09:07:44.115Z,34.7
2018-06-29T09:08:46.371Z,34.3
2018-06-29T09:09:48.689Z,34.2
2018-06-29T09:10:50.615Z,34.3
2018-06-29T09:11:52.922Z,34.1
2018-06-29T09:12:55.812Z,34.1
2018-06-29T09:13:58.012Z,34.1
2018-06-29T09:15:00.131Z,34.5
2018-06-29T09:16:02.253Z,34.5
2018-06-29T09:17:04.831Z,34.5
2018-06-29T09:18:07.208Z,35.2
2018-06-29T09:19:09.320Z,35.3
2018-06-29T09:20:11.323Z,35.1
2018-06-29T09:21:13.517Z,35.1
2018-06-29T09:22:16.402Z,35.5
2018-06-29T09:23:18.566Z,35.8
2018-06-29T09:24:21.771Z,35.7
2018-06-29T09:25:23.885Z,35.2
2018-06-29T09:26:26.333Z,35.4
2018-06-29T09:27:28.270Z,35.5
2018-06-29T09:28:30.497Z,35.6
2018-06-29T09:29:33.306Z,35.5
2018-06-29T09:30:35.640Z,35.6
2018-06-29T09:31:37.837Z,35.5
2018-06-29T09:32:40.519Z,35.5
2018-06-29T09:33:43.550Z,35.5
2018-06-29T09:34:46.390Z,35.6
2018-06-29T09:35:48.891Z,35.9
2018-06-29T09:36:50.926Z,36.0
2018-06-29T09:37:53.178Z,36.2
2018-06-29T09:38:55.468Z,36.4
2018-06-29T09:39:57.821Z,36.6
2018-06-29T09:41:00.135Z,36.3
2018-06-29T09:42:02.131Z,36.4
2018-06-29T09:43:04.116Z,36.6
2018-06-29T09:44:06.386Z,36.1
2018-06-29T09:45:08.359Z,36.1
2018-06-29T09:46:10.979Z,35.9
2018-06-29T09:47:13.138Z,35.7
2018-06-29T09:48:15.638Z,35.4
2018-06-29T09:49:17.571Z,35.5
2018-06-29T09:50:19.588Z,35.3
2018-06-29T09:51:21.716Z,35.3
2018-06-29T09:52:23.640Z,35.5
2018-06-29T09:53:25.967Z,35.7
2018-06-29T09:54:28.133Z,35.6
2018-06-29T09:55:30.283Z,35.9
2018-06-29T09:56:32.761Z,35.9
2018-06-29T09:57:34.776Z,36.5
2018-06-29T09:58:36.766Z,37.0
2018-06-29T09:59:39.102Z,37.2
2018-06-29T10:00:41.143Z,36.8
2018-06-29T10:01:43.026Z,36.6
2018-06-29T10:02:45.062Z,36.3
2018-06-29T10:03:47.163Z,36.6
2018-06-29T10:04:50.904Z,36.8
2018-06-29T10:05:53.162Z,37.0
2018-06-29T10:06:55.433Z,37.3
2018-06-29T10:07:57.452Z,37.5
2018-06-29T10:09:00.167Z,37.6
2018-06-29T10:10:03.058Z,37.5
2018-06-29T10:11:08.148Z,37.5
2018-06-29T10:12:10.314Z,37.7
2018-06-29T10:13:12.573Z,37.8
2018-06-29T10:14:15.310Z,37.9
2018-06-29T10:15:17.010Z,36.9
2018-06-29T10:16:19.230Z,36.5
2018-06-29T10:17:22.041Z,35.6
2018-06-29T10:18:23.878Z,36.1
2018-06-29T10:19:26.119Z,36.2
2018-06-29T10:20:28.426Z,35.9
2018-06-29T10:21:30.302Z,36.3
2018-06-29T10:22:32.810Z,36.6
2018-06-29T10:23:35.788Z,36.6
2018-06-29T10:24:37.494Z,36.5
2018-06-29T10:25:39.542Z,36.9
2018-06-29T10:26:41.916Z,36.9
2018-06-29T10:27:43.989Z,37.2
2018-06-29T10:28:46.609Z,37.3
2018-06-29T10:29:48.461Z,37.0
2018-06-29T10:30:50.384Z,37.0
2018-06-29T10:31:52.900Z,37.2
2018-06-29T10:32:55.160Z,37.4
2018-06-29T10:33:57.538Z,37.5
2018-06-29T10:34:59.781Z,37.7
2018-06-29T10:36:02.111Z,37.8
2018-06-29T10:37:04.531Z,38.2
2018-06-29T10:38:06.927Z,38.4
2018-06-29T10:39:09.364Z,37.9
2018-06-29T10:40:11.254Z,37.8
2018-06-29T10:41:13.904Z,38.1
2018-06-29T10:42:15.958Z,38.4
2018-06-29T10:43:18.094Z,38.4
2018-06-29T10:44:20.533Z,37.8
2018-06-29T10:45:22.959Z,37.7
2018-06-29T10:46:25.257Z,37.9
2018-06-29T10:47:27.613Z,38.2
2018-06-29T10:48:29.434Z,38.3
2018-06-29T10:49:31.402Z,38.4
2018-06-29T10:50:34.277Z,38.7
2018-06-29T10:51:36.664Z,38.8
2018-06-29T10:52:38.971Z,38.8
2018-06-29T10:53:40.843Z,39.0
2018-06-29T10:54:43.053Z,39.0
2018-06-29T10:55:45.326Z,39.2
2018-06-29T10:56:47.244Z,39.2
2018-06-29T10:57:49.717Z,38.9
2018-06-29T10:58:51.688Z,38.4
2018-06-29T10:59:53.675Z,38.5
2018-06-29T11:00:55.540Z,38.6
2018-06-29T11:01:57.796Z,38.3
2018-06-29T11:03:00.068Z,38.1
2018-06-29T11:04:01.879Z,38.3
2018-06-29T11:05:04.385Z,38.4
2018-06-29T11:06:06.699Z,38.0
2018-06-29T11:07:08.705Z,38.4
2018-06-29T11:08:11.155Z,38.6
2018-06-29T11:09:13.452Z,37.8
2018-06-29T11:10:15.729Z,38.0
2018-06-29T11:11:18.276Z,38.0
2018-06-29T11:12:21.166Z,37.6
2018-06-29T11:13:24.010Z,37.5
2018-06-29T11:14:25.814Z,36.9
2018-06-29T11:15:28.036Z,36.8
2018-06-29T11:16:31.110Z,36.9
2018-06-29T11:17:33.374Z,36.6
2018-06-29T11:18:35.853Z,37.2
2018-06-29T11:19:37.738Z,37.5
2018-06-29T11:20:39.840Z,37.7
2018-06-29T11:21:42.450Z,37.5
2018-06-29T11:22:44.324Z,37.7
2018-06-29T11:23:46.221Z,38.2
2018-06-29T11:24:48.488Z,38.4
2018-06-29T11:25:50.781Z,38.6
2018-06-29T11:26:52.811Z,38.4
2018-06-29T11:27:54.674Z,38.6
2018-06-29T11:28:56.520Z,38.7
2018-06-29T11:29:58.540Z,38.7
2018-06-29T11:31:00.701Z,39.0
2018-06-29T11:32:03.052Z,39.0
2018-06-29T11:33:04.977Z,39.0
2018-06-29T11:34:07.340Z,38.8
2018-06-29T11:35:09.319Z,39.0
2018-06-29T11:36:11.217Z,39.0
2018-06-29T11:37:13.846Z,38.9
2018-06-29T11:38:16.336Z,38.9
2018-06-29T11:39:18.937Z,38.8
2018-06-29T11:40:20.823Z,38.6
2018-06-29T11:41:23.159Z,38.8
2018-06-29T11:42:25.250Z,38.8
2018-06-29T11:43:27.515Z,39.1
2018-06-29T11:44:29.786Z,39.3
2018-06-29T11:45:32.374Z,39.2
2018-06-29T11:46:34.418Z,38.9
2018-06-29T11:47:37.059Z,39.0
2018-06-29T11:48:39.228Z,39.4
2018-06-29T11:49:41.054Z,39.2
2018-06-29T11:50:42.883Z,39.2
2018-06-29T11:51:45.511Z,39.3
2018-06-29T11:52:47.349Z,39.3
2018-06-29T11:53:49.396Z,39.1
2018-06-29T11:54:51.416Z,39.1
2018-06-29T11:55:53.444Z,39.2
2018-06-29T11:56:55.840Z,39.4
2018-06-29T11:57:57.968Z,40.0
2018-06-29T11:59:00.197Z,40.1
2018-06-29T12:00:02.303Z,40.5
2018-06-29T12:01:04.622Z,40.5
2018-06-29T12:02:06.769Z,40.7
2018-06-29T12:03:08.792Z,41.1
2018-06-29T12:04:10.782Z,41.1
2018-06-29T12:05:12.865Z,41.4
2018-06-29T12:06:14.804Z,41.4
2018-06-29T12:07:16.780Z,41.5
2018-06-29T12:08:18.653Z,41.7
2018-06-29T12:09:20.958Z,41.6
2018-06-29T12:10:22.991Z,41.9
2018-06-29T12:11:25.716Z,41.5
2018-06-29T12:12:27.822Z,41.3
2018-06-29T12:13:29.772Z,41.0
2018-06-29T12:14:32.246Z,40.8
2018-06-29T12:15:34.453Z,40.7
2018-06-29T12:16:36.578Z,40.1
2018-06-29T12:17:38.885Z,39.9
2018-06-29T12:18:41.106Z,40.1
2018-06-29T12:19:43.044Z,39.4
2018-06-29T12:20:45.077Z,39.3
2018-06-29T12:21:47.120Z,39.8
2018-06-29T12:22:49.878Z,39.7
2018-06-29T12:23:51.897Z,39.6
2018-06-29T12:24:54.934Z,39.9
2018-06-29T12:25:56.811Z,40.0
2018-06-29T12:26:58.987Z,40.0
2018-06-29T12:28:00.994Z,40.0
2018-06-29T12:29:03.015Z,39.9
2018-06-29T12:30:05.035Z,40.1
2018-06-29T12:31:07.593Z,40.2
2018-06-29T12:32:09.671Z,40.1
2018-06-29T12:33:11.695Z,40.4
2018-06-29T12:34:14.484Z,40.3
2018-06-29T12:35:16.815Z,40.4
2018-06-29T12:36:19.222Z,40.3
2018-06-29T12:37:21.551Z,40.5
2018-06-29T12:38:23.497Z,40.5
2018-06-29T12:39:25.778Z,40.7
2018-06-29T12:40:27.814Z,40.4
2018-06-29T12:41:29.836Z,40.4
2018-06-29T12:42:31.698Z,40.3
2018-06-29T12:43:34.004Z,40.4
2018-06-29T12:44:36.368Z,40.7
2018-06-29T12:45:39.298Z,40.7
2018-06-29T12:46:41.570Z,40.6
2018-06-29T12:47:43.553Z,40.6
2018-06-29T12:48:45.884Z,40.4
2018-06-29T12:49:47.676Z,40.5
2018-06-29T12:50:49.922Z,40.5
2018-06-29T12:51:52.349Z,40.7
2018-06-29T12:52:54.617Z,40.9
2018-06-29T12:53:56.662Z,40.5
2018-06-29T12:54:58.925Z,40.4
2018-06-29T12:56:00.918Z,40.4
2018-06-29T12:57:02.930Z,40.1
2018-06-29T12:58:05.315Z,40.4
2018-06-29T12:59:07.622Z,40.7
2018-06-29T13:00:11.233Z,40.6
2018-06-29T13:01:13.505Z,40.6
2018-06-29T13:02:15.412Z,40.4
2018-06-29T13:03:17.456Z,40.4
2018-06-29T13:04:19.636Z,40.4
2018-06-29T13:05:21.864Z,40.6
2018-06-29T13:06:24.071Z,40.4
2018-06-29T13:07:25.959Z,39.9
2018-06-29T13:08:28.002Z,40.0
2018-06-29T13:09:29.873Z,39.8
2018-06-29T13:10:32.080Z,39.6
2018-06-29T13:11:33.922Z,39.3
2018-06-29T13:12:35.742Z,39.5
2018-06-29T13:13:37.530Z,39.2
2018-06-29T13:14:40.438Z,39.5
2018-06-29T13:15:42.277Z,39.4
2018-06-29T13:16:44.710Z,39.1
2018-06-29T13:17:47.079Z,39.1
2018-06-29T13:18:49.153Z,38.8
2018-06-29T13:19:51.075Z,39.1
2018-06-29T13:20:52.899Z,39.2
2018-06-29T13:21:55.072Z,39.6
2018-06-29T13:22:57.293Z,39.8
2018-06-29T13:23:59.429Z,40.1
2018-06-29T13:25:01.308Z,40.3
2018-06-29T13:26:03.584Z,40.2
2018-06-29T13:27:05.763Z,40.7
2018-06-29T13:28:07.797Z,41.0
2018-06-29T13:29:09.781Z,41.1
2018-06-29T13:30:11.653Z,40.9
2018-06-29T13:31:13.759Z,40.8
2018-06-29T13:32:16.011Z,40.8
2018-06-29T13:33:18.512Z,41.0
2018-06-29T13:34:20.436Z,41.0
2018-06-29T13:35:22.290Z,41.3
2018-06-29T13:36:24.694Z,41.5
2018-06-29T13:37:26.929Z,41.6
2018-06-29T13:38:28.883Z,41.6
2018-06-29T13:39:31.253Z,41.8
2018-06-29T13:40:33.092Z,42.1
2018-06-29T13:41:34.919Z,41.5
2018-06-29T13:42:37.006Z,41.2
2018-06-29T13:43:39.084Z,41.3
2018-06-29T13:44:41.001Z,41.3
2018-06-29T13:45:42.816Z,41.3
2018-06-29T13:46:44.885Z,41.4
2018-06-29T13:47:46.763Z,41.6
2018-06-29T13:48:48.603Z,41.8
2018-06-29T13:49:50.351Z,41.6
2018-06-29T13:50:52.253Z,41.3
2018-06-29T13:51:54.151Z,41.3
2018-06-29T13:52:56.607Z,41.3
2018-06-29T13:53:58.438Z,41.2